createdAt,value
2018-07-26T00:00:14.178Z,23.32
2018-07-26T00:01:14.178Z,23.19
2018-07-26T00:02:14.201Z,23.19
2018-07-26T00:03:14.184Z,23.23
2018-07-26T00:04:14.182Z,23.22
2018-07-26T00:05:14.181Z,23.26
2018-07-26T00:06:14.177Z,23.16
2018-07-26T00:07:14.178Z,23.21
2018-07-26T00:08:14.177Z,23.31
2018-07-26T00:09:14.216Z,23.29
2018-07-26T00:10:14.222Z,23.29
2018-07-26T00:11:14.174Z,23.16
2018-07-26T00:12:14.175Z,23.11
2018-07-26T00:13:14.176Z,23.12
2018-07-26T00:14:14.175Z,22.96
2018-07-26T00:15:14.169Z,22.97
2018-07-26T00:16:14.168Z,22.94
2018-07-26T00:17:14.167Z,22.96
2018-07-26T00:18:14.175Z,22.94
2018-07-26T00:19:14.173Z,22.99
2018-07-26T00:20:14.191Z,23.01
2018-07-26T00:21:14.167Z,23.03
2018-07-26T00:22:14.166Z,23.11
2018-07-26T00:23:14.166Z,23.06
2018-07-26T00:24:14.164Z,23.03
2018-07-26T00:25:14.164Z,23.06
2018-07-26T00:26:14.163Z,23.15
2018-07-26T00:27:14.212Z,23.19
2018-07-26T00:28:14.166Z,23.21
2018-07-26T00:29:14.166Z,23.18
2018-07-26T00:30:14.159Z,23.22
2018-07-26T00:31:14.161Z,23.23
2018-07-26T00:32:14.159Z,23.18
2018-07-26T00:33:14.158Z,23.18
2018-07-26T00:34:14.156Z,23.23
2018-07-26T00:35:14.157Z,23.22
2018-07-26T00:36:14.154Z,23.21
2018-07-26T00:37:14.153Z,23.25
2018-07-26T00:38:14.157Z,23.18
2018-07-26T00:39:14.159Z,23.21
2018-07-26T00:40:14.151Z,23.22
2018-07-26T00:41:14.181Z,23.11
2018-07-26T00:42:14.151Z,23.07
2018-07-26T00:43:14.152Z,23.06
2018-07-26T00:44:14.148Z,23.01
2018-07-26T00:45:14.154Z,23.00
2018-07-26T00:46:14.148Z,23.06
2018-07-26T00:47:14.147Z,22.99
2018-07-26T00:48:14.142Z,23.01
2018-07-26T00:49:14.145Z,23.04
2018-07-26T00:50:14.147Z,23.01
2018-07-26T00:51:14.145Z,23.00
2018-07-26T00:52:14.140Z,22.78
2018-07-26T00:53:14.137Z,22.89
2018-07-26T00:54:14.140Z,22.88
2018-07-26T00:55:14.137Z,22.85
2018-07-26T00:56:14.134Z,22.75
2018-07-26T00:57:14.135Z,22.72
2018-07-26T00:58:14.134Z,22.81
2018-07-26T00:59:14.132Z,22.79
2018-07-26T01:00:14.130Z,22.72
2018-07-26T01:01:14.133Z,22.76
2018-07-26T01:02:14.134Z,22.76
2018-07-26T01:03:14.126Z,22.74
2018-07-26T01:04:14.138Z,22.72
2018-07-26T01:05:14.126Z,22.75
2018-07-26T01:06:14.128Z,22.72
2018-07-26T01:07:14.122Z,22.70
2018-07-26T01:08:14.266Z,22.70
2018-07-26T01:09:14.128Z,22.66
2018-07-26T01:10:14.124Z,22.66
2018-07-26T01:11:14.120Z,22.60
2018-07-26T01:12:14.117Z,22.56
2018-07-26T01:13:14.122Z,22.69
2018-07-26T01:14:14.114Z,22.61
2018-07-26T01:15:14.119Z,22.48
2018-07-26T01:16:14.113Z,22.54
2018-07-26T01:17:14.117Z,22.60
2018-07-26T01:18:14.117Z,22.59
2018-07-26T01:19:14.111Z,22.63
2018-07-26T01:20:14.112Z,22.67
2018-07-26T01:21:14.106Z,22.66
2018-07-26T01:22:14.107Z,22.63
2018-07-26T01:23:14.106Z,22.66
2018-07-26T01:24:14.107Z,22.69
2018-07-26T01:25:14.103Z,22.66
2018-07-26T01:26:14.102Z,22.66
2018-07-26T01:27:14.104Z,22.64
2018-07-26T01:28:14.104Z,22.59
2018-07-26T01:29:14.099Z,22.66
2018-07-26T01:30:14.097Z,22.61
2018-07-26T01:31:14.096Z,22.64
2018-07-26T01:32:14.096Z,22.64
2018-07-26T01:33:14.098Z,22.57
2018-07-26T01:34:14.090Z,22.60
2018-07-26T01:35:14.118Z,22.61
2018-07-26T01:36:14.095Z,22.59
2018-07-26T01:37:14.093Z,22.59
2018-07-26T01:38:14.088Z,22.60
2018-07-26T01:39:14.091Z,22.54
2018-07-26T01:40:14.084Z,22.51
2018-07-26T01:41:14.092Z,22.42
2018-07-26T01:42:14.088Z,22.56
2018-07-26T01:43:14.081Z,22.46
2018-07-26T01:44:14.079Z,22.46
2018-07-26T01:45:14.077Z,22.46
2018-07-26T01:46:14.077Z,22.49
2018-07-26T01:47:14.080Z,22.45
2018-07-26T01:48:14.075Z,22.45
2018-07-26T01:49:14.073Z,22.45
2018-07-26T01:50:14.076Z,22.35
2018-07-26T01:51:14.072Z,22.41
2018-07-26T01:52:14.073Z,22.30
2018-07-26T01:53:14.066Z,22.29
2018-07-26T01:54:14.065Z,22.29
2018-07-26T01:55:14.065Z,22.20
2018-07-26T01:56:14.064Z,22.15
2018-07-26T01:57:14.079Z,22.23
2018-07-26T01:58:14.062Z,22.20
2018-07-26T01:59:14.059Z,22.24
2018-07-26T02:00:14.058Z,22.21
2018-07-26T02:01:14.062Z,22.19
2018-07-26T02:02:14.060Z,22.19
2018-07-26T02:03:14.056Z,22.15
2018-07-26T02:04:14.060Z,22.06
2018-07-26T02:05:14.060Z,22.01
2018-07-26T02:06:14.053Z,22.01
2018-07-26T02:07:14.049Z,21.98
2018-07-26T02:08:14.047Z,21.94
2018-07-26T02:09:14.056Z,21.93
2018-07-26T02:10:14.052Z,21.91
2018-07-26T02:11:14.046Z,21.94
2018-07-26T02:12:14.048Z,21.93
2018-07-26T02:13:14.045Z,21.89
2018-07-26T02:14:14.045Z,21.89
2018-07-26T02:15:14.040Z,21.83
2018-07-26T02:16:14.037Z,21.79
2018-07-26T02:17:14.037Z,21.73
2018-07-26T02:18:14.034Z,21.71
2018-07-26T02:19:14.033Z,21.77
2018-07-26T02:20:14.032Z,21.74
2018-07-26T02:21:14.032Z,21.70
2018-07-26T02:22:14.031Z,21.81
2018-07-26T02:23:14.032Z,21.77
2018-07-26T02:24:14.028Z,21.67
2018-07-26T02:25:14.024Z,21.70
2018-07-26T02:26:14.027Z,21.67
2018-07-26T02:27:14.031Z,21.61
2018-07-26T02:28:14.024Z,21.56
2018-07-26T02:29:14.018Z,21.56
2018-07-26T02:30:14.021Z,21.56
2018-07-26T02:31:14.017Z,21.53
2018-07-26T02:32:14.011Z,21.55
2018-07-26T02:33:14.017Z,21.48
2018-07-26T02:34:14.016Z,21.49
2018-07-26T02:35:14.018Z,21.49
2018-07-26T02:36:14.008Z,21.52
2018-07-26T02:37:14.007Z,21.51
2018-07-26T02:38:14.009Z,21.48
2018-07-26T02:39:14.002Z,21.36
2018-07-26T02:40:14.001Z,21.36
2018-07-26T02:41:13.999Z,21.34
2018-07-26T02:42:14.002Z,21.38
2018-07-26T02:43:13.997Z,21.40
2018-07-26T02:44:13.995Z,21.42
2018-07-26T02:45:13.993Z,21.42
2018-07-26T02:46:13.998Z,21.43
2018-07-26T02:47:13.992Z,21.38
2018-07-26T02:48:13.987Z,21.43
2018-07-26T02:49:13.987Z,21.43
2018-07-26T02:50:13.987Z,21.34
2018-07-26T02:51:13.990Z,21.30
2018-07-26T02:52:13.983Z,21.28
2018-07-26T02:53:13.982Z,21.37
2018-07-26T02:54:13.979Z,21.36
2018-07-26T02:55:13.985Z,21.45
2018-07-26T02:56:13.976Z,21.40
2018-07-26T02:57:13.975Z,21.38
2018-07-26T02:58:13.974Z,21.46
2018-07-26T02:59:13.970Z,21.43
2018-07-26T03:00:13.971Z,21.45
2018-07-26T03:01:14.000Z,21.49
2018-07-26T03:02:13.970Z,21.40
2018-07-26T03:03:13.966Z,21.37
2018-07-26T03:04:13.962Z,21.31
2018-07-26T03:05:14.015Z,21.28
2018-07-26T03:06:13.964Z,21.30
2018-07-26T03:07:14.059Z,21.21
2018-07-26T03:08:13.955Z,21.16
2018-07-26T03:09:13.960Z,21.16
2018-07-26T03:10:13.956Z,21.19
2018-07-26T03:11:13.958Z,21.15
2018-07-26T03:12:13.955Z,21.16
2018-07-26T03:13:13.947Z,21.13
2018-07-26T03:14:13.947Z,21.12
2018-07-26T03:15:13.945Z,21.12
2018-07-26T03:16:13.958Z,21.13
2018-07-26T03:17:13.942Z,21.13
2018-07-26T03:18:13.938Z,21.13
2018-07-26T03:19:13.939Z,21.16
2018-07-26T03:20:13.945Z,21.18
2018-07-26T03:21:13.966Z,21.12
2018-07-26T03:22:13.934Z,21.18
2018-07-26T03:23:13.931Z,21.27
2018-07-26T03:24:13.943Z,21.21
2018-07-26T03:25:13.927Z,21.12
2018-07-26T03:26:13.930Z,21.16
2018-07-26T03:27:13.927Z,21.21
2018-07-26T03:28:13.921Z,21.12
2018-07-26T03:29:13.919Z,20.98
2018-07-26T03:30:13.919Z,21.12
2018-07-26T03:31:13.918Z,21.08
2018-07-26T03:32:13.914Z,21.05
2018-07-26T03:33:13.918Z,21.05
2018-07-26T03:34:13.910Z,21.09
2018-07-26T03:35:13.909Z,21.13
2018-07-26T03:36:13.912Z,21.13
2018-07-26T03:37:13.910Z,21.11
2018-07-26T03:38:13.938Z,21.08
2018-07-26T03:39:13.903Z,21.15
2018-07-26T03:40:13.904Z,21.09
2018-07-26T03:41:13.898Z,21.09
2018-07-26T03:42:13.897Z,21.16
2018-07-26T03:43:13.896Z,21.18
2018-07-26T03:44:13.899Z,21.16
2018-07-26T03:45:13.913Z,21.16
2018-07-26T03:46:13.891Z,21.01
2018-07-26T03:47:13.889Z,21.06
2018-07-26T03:48:13.886Z,20.98
2018-07-26T03:49:13.883Z,21.03
2018-07-26T03:50:13.885Z,21.01
2018-07-26T03:51:13.954Z,21.00
2018-07-26T03:52:13.877Z,20.98
2018-07-26T03:53:13.875Z,20.97
2018-07-26T03:54:13.875Z,20.87
2018-07-26T03:55:13.880Z,20.96
2018-07-26T03:56:13.870Z,20.94
2018-07-26T03:57:13.869Z,20.98
2018-07-26T03:58:13.867Z,20.93
2018-07-26T03:59:13.871Z,20.96
2018-07-26T04:00:13.894Z,20.91
2018-07-26T04:01:13.872Z,20.88
2018-07-26T04:02:13.859Z,20.96
2018-07-26T04:03:13.903Z,20.94
2018-07-26T04:04:13.861Z,20.91
2018-07-26T04:05:13.854Z,20.93
2018-07-26T04:06:13.855Z,20.87
2018-07-26T04:07:13.851Z,20.90
2018-07-26T04:08:13.850Z,20.94
2018-07-26T04:09:13.847Z,20.90
2018-07-26T04:10:13.844Z,20.97
2018-07-26T04:11:13.842Z,20.93
2018-07-26T04:12:13.847Z,20.97
2018-07-26T04:13:13.842Z,21.00
2018-07-26T04:14:13.841Z,20.90
2018-07-26T04:15:13.837Z,20.90
2018-07-26T04:16:13.832Z,21.01
2018-07-26T04:17:13.830Z,20.98
2018-07-26T04:18:13.833Z,20.94
2018-07-26T04:19:13.831Z,20.93
2018-07-26T04:20:13.824Z,20.96
2018-07-26T04:21:13.825Z,20.96
2018-07-26T04:22:13.827Z,21.00
2018-07-26T04:23:13.820Z,21.03
2018-07-26T04:24:13.820Z,21.00
2018-07-26T04:25:13.816Z,21.05
2018-07-26T04:26:13.815Z,21.06
2018-07-26T04:27:13.818Z,21.18
2018-07-26T04:28:13.809Z,21.16
2018-07-26T04:29:13.808Z,21.26
2018-07-26T04:30:13.809Z,21.16
2018-07-26T04:31:13.811Z,21.28
2018-07-26T04:32:13.871Z,21.31
2018-07-26T04:33:13.808Z,21.30
2018-07-26T04:34:13.806Z,21.36
2018-07-26T04:35:13.803Z,21.43
2018-07-26T04:36:13.800Z,21.64
2018-07-26T04:37:13.797Z,21.93
2018-07-26T04:38:13.794Z,22.39
2018-07-26T04:39:13.797Z,22.91
2018-07-26T04:40:13.835Z,23.45
2018-07-26T04:41:13.789Z,23.87
2018-07-26T04:42:13.793Z,24.27
2018-07-26T04:43:13.793Z,24.52
2018-07-26T04:44:13.786Z,24.92
2018-07-26T04:45:13.789Z,25.14
2018-07-26T04:46:13.785Z,25.36
2018-07-26T04:47:13.784Z,25.67
2018-07-26T04:48:13.785Z,25.94
2018-07-26T04:49:13.802Z,26.03
2018-07-26T04:50:13.788Z,26.36
2018-07-26T04:51:13.786Z,26.49
2018-07-26T04:52:13.792Z,26.71
2018-07-26T04:53:13.789Z,26.90
2018-07-26T04:54:13.792Z,27.11
2018-07-26T04:55:13.795Z,27.18
2018-07-26T04:56:13.794Z,27.34
2018-07-26T04:57:13.798Z,27.45
2018-07-26T04:58:13.800Z,27.65
2018-07-26T04:59:13.805Z,27.86
2018-07-26T05:00:13.804Z,27.98
2018-07-26T05:01:13.809Z,28.09
2018-07-26T05:02:13.811Z,28.17
2018-07-26T05:03:13.820Z,28.38
2018-07-26T05:04:13.818Z,28.45
2018-07-26T05:05:13.824Z,28.52
2018-07-26T05:06:13.830Z,28.57
2018-07-26T05:07:13.832Z,28.77
2018-07-26T05:08:13.872Z,28.72
2018-07-26T05:09:13.846Z,28.88
2018-07-26T05:10:13.844Z,28.94
2018-07-26T05:11:13.849Z,29.03
2018-07-26T05:12:13.853Z,29.21
2018-07-26T05:13:13.859Z,29.17
2018-07-26T05:14:13.869Z,29.12
2018-07-26T05:15:13.870Z,29.07
2018-07-26T05:16:13.873Z,29.11
2018-07-26T05:17:13.879Z,28.92
2018-07-26T05:18:13.883Z,28.61
2018-07-26T05:19:13.988Z,28.35
2018-07-26T05:20:13.893Z,28.30
2018-07-26T05:21:13.899Z,28.11
2018-07-26T05:22:13.906Z,27.95
2018-07-26T05:23:13.908Z,27.87
2018-07-26T05:24:13.913Z,27.90
2018-07-26T05:25:13.913Z,27.86
2018-07-26T05:26:13.917Z,27.77
2018-07-26T05:27:13.922Z,27.72
2018-07-26T05:28:13.923Z,27.62
2018-07-26T05:29:13.935Z,27.53
2018-07-26T05:30:13.931Z,27.46
2018-07-26T05:31:13.935Z,27.25
2018-07-26T05:32:13.934Z,27.20
2018-07-26T05:33:13.938Z,27.09
2018-07-26T05:34:13.943Z,27.11
2018-07-26T05:35:13.947Z,27.08
2018-07-26T05:36:13.945Z,27.01
2018-07-26T05:37:13.947Z,26.93
2018-07-26T05:38:13.951Z,26.88
2018-07-26T05:39:13.952Z,26.91
2018-07-26T05:40:13.959Z,26.88
2018-07-26T05:41:13.957Z,26.87
2018-07-26T05:42:13.965Z,26.76
2018-07-26T05:43:14.000Z,26.72
2018-07-26T05:44:13.969Z,26.71
2018-07-26T05:45:13.969Z,26.57
2018-07-26T05:46:13.975Z,26.68
2018-07-26T05:47:13.974Z,26.68
2018-07-26T05:48:13.975Z,26.59
2018-07-26T05:49:13.973Z,26.57
2018-07-26T05:50:13.977Z,26.56
2018-07-26T05:51:13.978Z,26.50
2018-07-26T05:52:13.989Z,26.46
2018-07-26T05:53:14.039Z,26.50
2018-07-26T05:54:13.983Z,26.53
2018-07-26T05:55:13.999Z,26.42
2018-07-26T05:56:13.989Z,26.53
2018-07-26T05:57:13.994Z,26.51
2018-07-26T05:58:13.990Z,26.47
2018-07-26T05:59:13.997Z,26.50
2018-07-26T06:00:14.037Z,26.36
2018-07-26T06:01:13.996Z,26.39
2018-07-26T06:02:14.002Z,26.28
2018-07-26T06:03:14.005Z,26.20
2018-07-26T06:04:14.002Z,26.28
2018-07-26T06:05:14.012Z,26.41
2018-07-26T06:06:14.008Z,26.39
2018-07-26T06:07:14.016Z,26.49
2018-07-26T06:08:14.016Z,26.57
2018-07-26T06:09:14.015Z,26.65
2018-07-26T06:10:14.015Z,26.61
2018-07-26T06:11:14.021Z,26.73
2018-07-26T06:12:14.019Z,26.86
2018-07-26T06:13:14.016Z,26.88
2018-07-26T06:14:14.016Z,26.98
2018-07-26T06:15:14.021Z,26.98
2018-07-26T06:16:14.021Z,27.03
2018-07-26T06:17:14.112Z,27.08
2018-07-26T06:18:14.024Z,27.11
2018-07-26T06:19:14.029Z,27.08
2018-07-26T06:20:14.035Z,27.08
2018-07-26T06:21:14.034Z,27.08
2018-07-26T06:22:14.042Z,27.16
2018-07-26T06:23:14.035Z,27.28
2018-07-26T06:24:14.040Z,27.35
2018-07-26T06:25:14.040Z,27.31
2018-07-26T06:26:14.039Z,27.28
2018-07-26T06:27:14.054Z,27.33
2018-07-26T06:28:14.091Z,27.34
2018-07-26T06:29:14.046Z,27.45
2018-07-26T06:30:14.049Z,27.45
2018-07-26T06:31:14.051Z,27.61
2018-07-26T06:32:14.053Z,27.53
2018-07-26T06:33:14.055Z,27.55
2018-07-26T06:34:14.075Z,27.61
2018-07-26T06:35:14.064Z,27.72
2018-07-26T06:36:14.061Z,27.74
2018-07-26T06:37:14.068Z,27.69
2018-07-26T06:38:14.065Z,27.77
2018-07-26T06:39:14.066Z,27.78
2018-07-26T06:40:14.070Z,27.84
2018-07-26T06:41:14.081Z,27.88
2018-07-26T06:42:14.074Z,27.86
2018-07-26T06:43:14.078Z,27.90
2018-07-26T06:44:14.079Z,27.91
2018-07-26T06:45:14.081Z,28.01
2018-07-26T06:46:14.091Z,27.98
2018-07-26T06:47:14.086Z,28.02
2018-07-26T06:48:14.087Z,27.98
2018-07-26T06:49:14.098Z,28.13
2018-07-26T06:50:14.094Z,28.13
2018-07-26T06:51:14.096Z,28.21
2018-07-26T06:52:14.100Z,28.21
2018-07-26T06:53:14.107Z,28.20
2018-07-26T06:54:14.103Z,28.21
2018-07-26T06:55:14.105Z,28.23
2018-07-26T06:56:14.115Z,28.21
2018-07-26T06:57:14.110Z,28.28
2018-07-26T06:58:14.114Z,28.20
2018-07-26T06:59:14.120Z,28.33
2018-07-26T07:00:14.118Z,28.39
2018-07-26T07:01:14.120Z,28.40
2018-07-26T07:02:14.126Z,28.39
2018-07-26T07:03:14.130Z,28.39
2018-07-26T07:04:14.131Z,28.43
2018-07-26T07:05:14.133Z,28.42
2018-07-26T07:06:14.139Z,28.55
2018-07-26T07:07:14.137Z,28.55
2018-07-26T07:08:14.139Z,28.50
2018-07-26T07:09:14.145Z,28.55
2018-07-26T07:10:14.150Z,28.60
2018-07-26T07:11:14.149Z,28.61
2018-07-26T07:12:14.149Z,28.54
2018-07-26T07:13:14.158Z,28.60
2018-07-26T07:14:14.158Z,28.69
2018-07-26T07:15:14.161Z,28.77
2018-07-26T07:16:14.165Z,28.76
2018-07-26T07:17:14.168Z,28.82
2018-07-26T07:18:14.168Z,28.82
2018-07-26T07:19:14.182Z,28.85
2018-07-26T07:20:14.180Z,28.89
2018-07-26T07:21:14.179Z,28.98
2018-07-26T07:22:14.180Z,29.05
2018-07-26T07:23:14.184Z,29.12
2018-07-26T07:24:14.190Z,29.14
2018-07-26T07:25:14.189Z,29.20
2018-07-26T07:26:14.199Z,29.17
2018-07-26T07:27:14.201Z,29.26
2018-07-26T07:28:14.199Z,29.30
2018-07-26T07:29:14.203Z,29.36
2018-07-26T07:30:14.207Z,29.37
2018-07-26T07:31:14.215Z,29.48
2018-07-26T07:32:14.215Z,29.49
2018-07-26T07:33:14.272Z,29.63
2018-07-26T07:34:14.223Z,29.52
2018-07-26T07:35:14.228Z,29.54
2018-07-26T07:36:14.230Z,29.48
2018-07-26T07:37:14.236Z,29.52
2018-07-26T07:38:14.234Z,29.60
2018-07-26T07:39:14.237Z,29.58
2018-07-26T07:40:14.243Z,29.60
2018-07-26T07:41:14.243Z,29.55
2018-07-26T07:42:14.251Z,29.66
2018-07-26T07:43:14.256Z,29.78
2018-07-26T07:44:14.253Z,29.79
2018-07-26T07:45:14.258Z,29.88
2018-07-26T07:46:14.260Z,29.84
2018-07-26T07:47:14.321Z,29.86
2018-07-26T07:48:14.267Z,29.91
2018-07-26T07:49:14.273Z,29.91
2018-07-26T07:50:14.277Z,29.89
2018-07-26T07:51:14.281Z,29.85
2018-07-26T07:52:14.283Z,29.76
2018-07-26T07:53:14.288Z,29.57
2018-07-26T07:54:14.291Z,29.51
2018-07-26T07:55:14.297Z,29.37
2018-07-26T07:56:14.297Z,29.26
2018-07-26T07:57:14.306Z,29.20
2018-07-26T07:58:14.308Z,29.14
2018-07-26T07:59:14.318Z,29.18
2018-07-26T08:00:14.320Z,29.17
2018-07-26T08:01:14.323Z,29.10
2018-07-26T08:02:14.322Z,29.10
2018-07-26T08:03:14.327Z,29.02
2018-07-26T08:04:14.327Z,28.97
2018-07-26T08:05:14.372Z,29.00
2018-07-26T08:06:14.342Z,28.92
2018-07-26T08:07:14.338Z,29.10
2018-07-26T08:08:14.347Z,28.98
2018-07-26T08:09:14.346Z,28.98
2018-07-26T08:10:14.349Z,28.91
2018-07-26T08:11:14.403Z,28.95
2018-07-26T08:12:14.359Z,28.97
2018-07-26T08:13:14.359Z,28.98
2018-07-26T08:14:14.367Z,28.97
2018-07-26T08:15:14.371Z,28.92
2018-07-26T08:16:14.369Z,28.94
2018-07-26T08:17:14.372Z,29.02
2018-07-26T08:18:14.380Z,29.15
2018-07-26T08:19:14.379Z,29.18
2018-07-26T08:20:14.383Z,29.14
2018-07-26T08:21:14.393Z,29.14
2018-07-26T08:22:14.435Z,29.14
2018-07-26T08:23:14.393Z,29.21
2018-07-26T08:24:14.394Z,29.21
2018-07-26T08:25:14.403Z,29.23
2018-07-26T08:26:14.403Z,29.21
2018-07-26T08:27:14.406Z,29.26
2018-07-26T08:28:14.413Z,29.32
2018-07-26T08:29:14.412Z,29.32
2018-07-26T08:30:14.413Z,29.35
2018-07-26T08:31:14.418Z,29.48
2018-07-26T08:32:14.427Z,29.60
2018-07-26T08:33:14.424Z,29.55
2018-07-26T08:34:14.430Z,29.67
2018-07-26T08:35:14.507Z,29.76
2018-07-26T08:36:14.440Z,29.74
2018-07-26T08:37:14.438Z,29.73
2018-07-26T08:38:14.442Z,29.78
2018-07-26T08:39:14.446Z,29.76
2018-07-26T08:40:14.449Z,29.78
2018-07-26T08:41:14.462Z,29.73
2018-07-26T08:42:14.457Z,29.91
2018-07-26T08:43:14.459Z,29.99
2018-07-26T08:44:14.464Z,29.99
2018-07-26T08:45:14.465Z,30.11
2018-07-26T08:46:14.471Z,30.11
2018-07-26T08:47:14.478Z,30.07
2018-07-26T08:48:14.510Z,30.08
2018-07-26T08:49:14.481Z,30.23
2018-07-26T08:50:14.490Z,30.22
2018-07-26T08:51:14.490Z,30.19
2018-07-26T08:52:14.511Z,30.22
2018-07-26T08:53:14.497Z,30.34
2018-07-26T08:54:14.559Z,30.38
2018-07-26T08:55:14.509Z,30.37
2018-07-26T08:56:14.512Z,30.51
2018-07-26T08:57:14.508Z,30.60
2018-07-26T08:58:14.514Z,30.61
2018-07-26T08:59:14.519Z,30.61
2018-07-26T09:00:14.522Z,30.60
2018-07-26T09:01:14.598Z,30.51
2018-07-26T09:02:14.530Z,30.57
2018-07-26T09:03:14.538Z,30.60
2018-07-26T09:04:14.537Z,30.60
2018-07-26T09:05:14.540Z,30.59
2018-07-26T09:06:14.545Z,30.72
2018-07-26T09:07:14.554Z,30.72
2018-07-26T09:08:14.552Z,30.61
2018-07-26T09:09:14.562Z,30.75
2018-07-26T09:10:14.561Z,30.75
2018-07-26T09:11:14.570Z,30.85
2018-07-26T09:12:14.566Z,30.86
2018-07-26T09:13:14.576Z,30.86
2018-07-26T09:14:14.578Z,30.82
2018-07-26T09:15:14.581Z,30.83
2018-07-26T09:16:14.583Z,30.75
2018-07-26T09:17:14.639Z,30.86
2018-07-26T09:18:14.595Z,30.85
2018-07-26T09:19:14.597Z,30.85
2018-07-26T09:20:14.605Z,30.96
2018-07-26T09:21:14.611Z,30.98
2018-07-26T09:22:14.609Z,30.97
2018-07-26T09:23:14.611Z,30.94
2018-07-26T09:24:14.622Z,30.93
2018-07-26T09:25:14.621Z,30.93
2018-07-26T09:26:14.690Z,30.93
2018-07-26T09:27:14.630Z,30.98
2018-07-26T09:28:14.633Z,31.05
2018-07-26T09:29:14.640Z,31.12
2018-07-26T09:30:14.641Z,31.13
2018-07-26T09:31:14.648Z,31.22
2018-07-26T09:32:14.649Z,31.13
2018-07-26T09:33:14.693Z,31.13
2018-07-26T09:34:14.661Z,31.03
2018-07-26T09:35:14.663Z,30.98
2018-07-26T09:36:14.666Z,31.04
2018-07-26T09:37:14.672Z,31.07
2018-07-26T09:38:14.678Z,31.10
2018-07-26T09:39:14.684Z,31.18
2018-07-26T09:40:14.684Z,31.12
2018-07-26T09:41:14.691Z,31.27
2018-07-26T09:42:14.697Z,31.30
2018-07-26T09:43:14.702Z,31.41
2018-07-26T09:44:14.706Z,31.47
2018-07-26T09:45:14.710Z,31.56
2018-07-26T09:46:14.711Z,31.54
2018-07-26T09:47:14.731Z,31.59
2018-07-26T09:48:14.725Z,31.62
2018-07-26T09:49:14.728Z,31.35
2018-07-26T09:50:14.731Z,31.34
2018-07-26T09:51:14.733Z,31.23
2018-07-26T09:52:14.742Z,31.34
2018-07-26T09:53:14.741Z,31.34
2018-07-26T09:54:14.747Z,31.53
2018-07-26T09:55:14.752Z,31.59
2018-07-26T09:56:14.763Z,31.68
2018-07-26T09:57:14.759Z,31.75
2018-07-26T09:58:14.765Z,31.72
2018-07-26T09:59:14.773Z,31.90
2018-07-26T10:00:14.833Z,31.91
2018-07-26T10:01:14.784Z,32.02
2018-07-26T10:02:14.785Z,32.03
2018-07-26T10:03:14.793Z,32.07
2018-07-26T10:04:14.792Z,32.09
2018-07-26T10:05:14.802Z,32.10
2018-07-26T10:06:14.806Z,32.06
2018-07-26T10:07:14.814Z,32.19
2018-07-26T10:08:14.812Z,32.14
2018-07-26T10:09:14.815Z,32.19
2018-07-26T10:10:14.829Z,32.24
2018-07-26T10:11:14.832Z,32.24
2018-07-26T10:12:14.832Z,32.32
2018-07-26T10:13:14.842Z,32.35
2018-07-26T10:14:14.848Z,32.32
2018-07-26T10:15:14.851Z,32.40
2018-07-26T10:16:14.852Z,32.39
2018-07-26T10:17:14.864Z,32.22
2018-07-26T10:18:14.864Z,32.22
2018-07-26T10:19:14.867Z,32.13
2018-07-26T10:20:14.966Z,32.12
2018-07-26T10:21:14.881Z,32.09
2018-07-26T10:22:14.883Z,32.09
2018-07-26T10:23:14.889Z,32.13
2018-07-26T10:24:14.901Z,32.13
2018-07-26T10:25:14.898Z,31.99
2018-07-26T10:26:14.911Z,32.03
2018-07-26T10:27:14.912Z,31.95
2018-07-26T10:28:14.916Z,32.03
2018-07-26T10:29:14.920Z,32.10
2018-07-26T10:30:14.928Z,32.02
2018-07-26T10:31:14.932Z,31.97
2018-07-26T10:32:14.931Z,31.92
2018-07-26T10:33:14.938Z,31.87
2018-07-26T10:34:14.944Z,31.91
2018-07-26T10:35:14.955Z,31.94
2018-07-26T10:36:14.954Z,31.90
2018-07-26T10:37:14.958Z,31.92
2018-07-26T10:38:14.962Z,31.88
2018-07-26T10:39:14.967Z,31.90
2018-07-26T10:40:14.972Z,31.88
2018-07-26T10:41:14.977Z,31.88
2018-07-26T10:42:14.986Z,31.90
2018-07-26T10:43:14.986Z,31.91
2018-07-26T10:44:14.990Z,31.79
2018-07-26T10:45:14.998Z,31.90
2018-07-26T10:46:15.008Z,31.91
2018-07-26T10:47:15.012Z,31.91
2018-07-26T10:48:15.013Z,31.82
2018-07-26T10:49:15.016Z,31.91
2018-07-26T10:50:15.024Z,31.95
2018-07-26T10:51:15.027Z,31.90
2018-07-26T10:52:15.032Z,32.06
2018-07-26T10:53:15.042Z,32.14
2018-07-26T10:54:15.040Z,32.10
2018-07-26T10:55:15.050Z,32.27
2018-07-26T10:56:15.057Z,32.10
2018-07-26T10:57:15.057Z,32.13
2018-07-26T10:58:15.060Z,32.09
2018-07-26T10:59:15.067Z,32.13
2018-07-26T11:00:15.102Z,32.09
2018-07-26T11:01:15.076Z,31.95
2018-07-26T11:02:15.080Z,32.06
2018-07-26T11:03:15.090Z,32.06
2018-07-26T11:04:15.093Z,32.09
2018-07-26T11:05:15.097Z,32.12
2018-07-26T11:06:15.102Z,32.19
2018-07-26T11:07:15.107Z,32.12
2018-07-26T11:08:15.111Z,32.21
2018-07-26T11:09:15.116Z,32.14
2018-07-26T11:10:15.122Z,32.09
2018-07-26T11:11:15.132Z,31.99
2018-07-26T11:12:15.131Z,31.97
2018-07-26T11:13:15.136Z,32.09
2018-07-26T11:14:15.141Z,32.13
2018-07-26T11:15:15.160Z,32.16
2018-07-26T11:16:15.152Z,32.27
2018-07-26T11:17:15.156Z,32.36
2018-07-26T11:18:15.161Z,32.41
2018-07-26T11:19:15.166Z,32.44
2018-07-26T11:20:15.176Z,32.59
2018-07-26T11:21:15.179Z,32.71
2018-07-26T11:22:15.182Z,32.69
2018-07-26T11:23:15.190Z,32.72
2018-07-26T11:24:15.227Z,32.61
2018-07-26T11:25:15.196Z,32.54
2018-07-26T11:26:15.208Z,32.47
2018-07-26T11:27:15.209Z,32.47
2018-07-26T11:28:15.213Z,32.39
2018-07-26T11:29:15.217Z,32.46
2018-07-26T11:30:15.221Z,32.58
2018-07-26T11:31:15.229Z,32.49
2018-07-26T11:32:15.241Z,32.53
2018-07-26T11:33:15.245Z,32.51
2018-07-26T11:34:15.241Z,32.49
2018-07-26T11:35:15.253Z,32.43
2018-07-26T11:36:15.269Z,32.46
2018-07-26T11:37:15.262Z,32.39
2018-07-26T11:38:15.263Z,32.41
2018-07-26T11:39:15.272Z,32.53
2018-07-26T11:40:15.274Z,32.58
2018-07-26T11:41:15.337Z,32.71
2018-07-26T11:42:15.285Z,32.71
2018-07-26T11:43:15.289Z,32.80
2018-07-26T11:44:15.299Z,32.88
2018-07-26T11:45:15.298Z,32.81
2018-07-26T11:46:15.312Z,32.68
2018-07-26T11:47:15.313Z,32.62
2018-07-26T11:48:15.315Z,32.39
2018-07-26T11:49:15.322Z,32.36
2018-07-26T11:50:15.401Z,32.29
2018-07-26T11:51:15.332Z,32.22
2018-07-26T11:52:15.335Z,32.28
2018-07-26T11:53:15.343Z,32.31
2018-07-26T11:54:15.352Z,32.43
2018-07-26T11:55:15.358Z,32.56
2018-07-26T11:56:15.362Z,32.66
2018-07-26T11:57:15.364Z,32.59
2018-07-26T11:58:15.368Z,32.58
2018-07-26T11:59:15.375Z,32.47
2018-07-26T12:00:15.379Z,32.59
2018-07-26T12:01:15.386Z,32.50
2018-07-26T12:02:15.390Z,32.54
2018-07-26T12:03:15.392Z,32.56
2018-07-26T12:04:15.401Z,32.65
2018-07-26T12:05:15.409Z,32.77
2018-07-26T12:06:15.407Z,32.87
2018-07-26T12:07:15.414Z,32.88
2018-07-26T12:08:15.489Z,32.77
2018-07-26T12:09:15.424Z,32.71
2018-07-26T12:10:15.429Z,32.73
2018-07-26T12:11:15.436Z,32.66
2018-07-26T12:12:15.442Z,32.58
2018-07-26T12:13:15.445Z,32.66
2018-07-26T12:14:15.500Z,32.69
2018-07-26T12:15:15.457Z,32.63
2018-07-26T12:16:15.467Z,32.69
2018-07-26T12:17:15.468Z,32.62
2018-07-26T12:18:15.476Z,32.76
2018-07-26T12:19:15.480Z,32.83
2018-07-26T12:20:15.481Z,32.95
2018-07-26T12:21:15.489Z,32.66
2018-07-26T12:22:15.497Z,32.72
2018-07-26T12:23:15.503Z,32.72
2018-07-26T12:24:15.511Z,32.62
2018-07-26T12:25:15.513Z,32.80
2018-07-26T12:26:15.515Z,32.80
2018-07-26T12:27:15.521Z,32.78
2018-07-26T12:28:15.524Z,32.85
2018-07-26T12:29:15.529Z,32.87
2018-07-26T12:30:15.539Z,32.85
2018-07-26T12:31:15.539Z,32.80
2018-07-26T12:32:15.547Z,32.73
2018-07-26T12:33:15.555Z,32.81
2018-07-26T12:34:15.556Z,32.85
2018-07-26T12:35:15.565Z,32.90
2018-07-26T12:36:15.573Z,32.95
2018-07-26T12:37:15.573Z,32.63
2018-07-26T12:38:15.578Z,32.66
2018-07-26T12:39:15.591Z,32.88
2018-07-26T12:40:15.587Z,32.91
2018-07-26T12:41:15.636Z,32.91
2018-07-26T12:42:15.599Z,33.05
2018-07-26T12:43:15.604Z,33.12
2018-07-26T12:44:15.610Z,33.15
2018-07-26T12:45:15.619Z,33.15
2018-07-26T12:46:15.625Z,33.15
2018-07-26T12:47:15.625Z,33.24
2018-07-26T12:48:15.635Z,33.29
2018-07-26T12:49:15.638Z,33.40
2018-07-26T12:50:15.641Z,33.24
2018-07-26T12:51:15.646Z,33.03
2018-07-26T12:52:15.654Z,32.91